Time;durP1;ratioP1;P1;durP2;ratioP2;P2;SDS_P1;SDS_P2;PMS_P1;PMS_P2;Temp;Humidity;BMP_temperature;BMP_pressure;BME280_temperature;BME280_humidity;BME280_pressure;Samples;Min_cycle;Max_cycle;Signal;HPM_P1;HPM_P2
2022/03/23 00:00:03;;;;;;;19.83;11.85;;;;;;;7.30;47.37;101158.72;1088276;54;20042;-80
2022/03/23 00:01:05;;;;;;;17.83;11.32;;;;;;;7.39;46.99;101163.47;1088358;46;20045;-80
2022/03/23 00:02:10;;;;;;;17.98;11.65;;;;;;;7.36;47.23;101165.47;1088322;54;20022;-80
2022/03/23 00:03:15;;;;;;;18.17;11.40;;;;;;;7.40;47.06;101164.31;1088417;54;20031;-79
2022/03/23 00:04:22;;;;;;;19.17;11.98;;;;;;;7.44;47.03;101165.84;1088389;54;20091;-80
2022/03/23 00:05:28;;;;;;;16.60;10.85;;;;;;;7.42;47.27;101165.09;1088473;54;20019;-80
2022/03/23 00:06:32;;;;;;;19.55;11.50;;;;;;;7.36;47.14;101162.81;1088400;54;20065;-80
2022/03/23 00:07:40;;;;;;;17.20;11.32;;;;;;;7.30;47.75;101158.72;1088454;54;20026;-80
2022/03/23 00:08:43;;;;;;;21.58;11.38;;;;;;;7.18;48.19;101170.97;1088401;54;20034;-80
2022/03/23 00:09:47;;;;;;;17.45;11.70;;;;;;;7.08;48.17;101162.72;1088431;54;20034;-81
2022/03/23 00:10:49;;;;;;;17.40;12.07;;;;;;;7.01;48.65;101167.56;1089268;46;20281;-81
2022/03/23 00:11:54;;;;;;;17.38;12.38;;;;;;;6.98;48.63;101167.75;1088443;54;20082;-82
2022/03/23 00:13:03;;;;;;;16.67;12.10;;;;;;;6.95;48.71;101167.94;1088390;54;20086;-79
2022/03/23 00:14:09;;;;;;;18.65;11.80;;;;;;;7.08;48.22;101172.53;1088423;54;20074;-81
2022/03/23 00:15:13;;;;;;;17.73;12.40;;;;;;;7.03;48.07;101164.81;1088430;54;20785;-81
2022/03/23 00:16:15;;;;;;;16.77;10.95;;;;;;;6.92;48.09;101167.28;1089351;39;20575;-80
2022/03/23 00:17:20;;;;;;;21.75;13.32;;;;;;;6.87;48.09;101168.41;1088434;54;20015;-81
2022/03/23 00:18:22;;;;;;;18.48;12.05;;;;;;;6.76;48.55;101168.19;1088439;54;20034;-81
2022/03/23 00:19:26;;;;;;;20.33;12.35;;;;;;;6.68;48.89;101167.81;1089297;39;20688;-80
2022/03/23 00:20:31;;;;;;;20.58;12.98;;;;;;;6.60;49.29;101165.63;1088408;54;20069;-81
2022/03/23 00:21:36;;;;;;;19.15;11.95;;;;;;;6.65;48.72;101166.19;1088377;54;20030;-81
2022/03/23 00:22:39;;;;;;;17.48;12.50;;;;;;;6.72;48.92;101169.34;1088445;54;20034;-80
2022/03/23 00:23:43;;;;;;;22.40;13.10;;;;;;;6.72;48.74;101166.69;1088301;54;20035;-82
2022/03/23 00:24:45;;;;;;;17.33;12.88;;;;;;;6.61;49.57;101164.69;1088434;54;20018;-80
2022/03/23 00:25:50;;;;;;;15.85;12.35;;;;;;;6.55;49.61;101176.53;1088218;54;20079;-80
2022/03/23 00:26:52;;;;;;;23.58;12.98;;;;;;;6.54;49.79;101179.25;1088397;54;20018;-80
2022/03/23 00:27:57;;;;;;;22.38;14.15;;;;;;;6.51;50.09;101182.13;1088391;54;20111;-80
2022/03/23 00:29:01;;;;;;;18.95;12.90;;;;;;;6.48;50.11;101176.97;1088363;54;20061;-80
2022/03/23 00:30:06;;;;;;;20.90;13.27;;;;;;;6.49;50.41;101176.03;1091877;39;20705;-80
2022/03/23 00:31:10;;;;;;;22.73;14.43;;;;;;;6.43;50.85;101176.38;1088360;54;20038;-80
2022/03/23 00:32:14;;;;;;;21.23;13.60;;;;;;;6.45;51.13;101174.47;1088336;54;20037;-81
2022/03/23 00:33:21;;;;;;;17.40;13.10;;;;;;;6.39;51.37;101179.22;1088381;54;20678;-81
2022/03/23 00:34:23;;;;;;;19.63;13.32;;;;;;;6.34;51.93;101173.31;1088369;54;20029;-81
2022/03/23 00:35:28;;;;;;;18.20;12.73;;;;;;;6.36;51.93;101176.75;1088371;54;20015;-81
2022/03/23 00:36:32;;;;;;;21.63;14.23;;;;;;;6.29;52.53;101172.75;1088363;54;20022;-81
2022/03/23 00:37:37;;;;;;;21.45;14.52;;;;;;;6.27;52.14;101181.75;1088381;54;20038;-81
2022/03/23 00:38:39;;;;;;;20.60;13.80;;;;;;;6.19;52.01;101184.84;1088275;54;20027;-79
2022/03/23 00:39:43;;;;;;;20.63;13.88;;;;;;;6.15;52.39;101183.28;1088344;54;20103;-80
2022/03/23 00:40:46;;;;;;;22.98;14.70;;;;;;;6.12;52.22;101191.44;1088347;54;20038;-80
2022/03/23 00:41:52;;;;;;;25.05;14.18;;;;;;;6.06;52.46;101185.53;1088235;54;20041;-81
2022/03/23 00:42:54;;;;;;;22.30;13.90;;;;;;;6.01;52.40;101192.03;1088336;54;20015;-79
2022/03/23 00:43:59;;;;;;;21.48;14.45;;;;;;;6.05;51.98;101189.13;1088423;54;20030;-81
2022/03/23 00:45:04;;;;;;;22.83;14.32;;;;;;;6.06;52.00;101182.88;1088681;54;20061;-81
2022/03/23 00:46:06;;;;;;;17.58;13.63;;;;;;;6.06;51.64;101188.19;1088658;54;20026;-81
2022/03/23 00:47:11;;;;;;;18.88;13.32;;;;;;;6.11;51.65;101177.31;1088671;54;20082;-79
2022/03/23 00:48:13;;;;;;;17.92;12.85;;;;;;;6.11;51.46;101179.97;1097135;46;20058;-80
2022/03/23 00:49:18;;;;;;;17.02;13.23;;;;;;;6.17;51.14;101186.72;1088634;54;20027;-79
2022/03/23 00:50:20;;;;;;;23.52;13.63;;;;;;;6.15;51.12;101177.97;1088707;54;20034;-80
2022/03/23 00:51:25;;;;;;;18.10;12.82;;;;;;;6.20;51.03;101181.25;1090148;39;20669;-80
2022/03/23 00:52:37;;;;;;;18.55;13.77;;;;;;;6.20;50.98;101183.91;1097788;39;20656;-81
2022/03/23 00:53:41;;;;;;;22.60;14.85;;;;;;;6.16;50.66;101183.22;1088613;54;20065;-81
2022/03/23 00:54:43;;;;;;;20.30;12.18;;;;;;;6.20;50.86;101181.25;1088552;54;20046;-81
2022/03/23 00:55:48;;;;;;;20.65;13.70;;;;;;;6.15;50.80;101176.19;1088502;54;20733;-81
2022/03/23 00:56:52;;;;;;;18.88;12.98;;;;;;;6.13;50.92;101174.59;1092509;39;20680;-80
2022/03/23 00:57:57;;;;;;;19.67;12.63;;;;;;;6.08;50.86;101180.16;1089947;46;20658;-81
2022/03/23 00:58:59;;;;;;;19.42;13.35;;;;;;;6.07;50.78;101181.94;1088598;54;20022;-80
2022/03/23 01:00:03;;;;;;;20.48;13.68;;;;;;;6.05;50.91;101178.50;1097820;39;20680;-79
2022/03/23 01:01:07;;;;;;;18.90;13.13;;;;;;;6.06;50.78;101168.75;1088696;54;20045;-79
2022/03/23 01:02:14;;;;;;;20.58;13.05;;;;;;;6.12;50.82;101172.88;1088651;54;20039;-80
2022/03/23 01:03:16;;;;;;;22.55;14.00;;;;;;;6.08;50.83;101185.47;1088706;54;20014;-81
2022/03/23 01:04:22;;;;;;;18.38;12.38;;;;;;;6.13;50.56;101177.22;1095746;39;20730;-79
2022/03/23 01:05:25;;;;;;;18.48;12.50;;;;;;;6.12;50.32;101172.88;1088661;54;20069;-81
2022/03/23 01:06:29;;;;;;;18.45;12.88;;;;;;;6.18;50.24;101175.16;1088619;54;20094;-78
2022/03/23 01:07:33;;;;;;;19.85;11.95;;;;;;;6.06;50.33;101174.91;1088658;54;20019;-80
2022/03/23 01:08:37;;;;;;;17.85;12.73;;;;;;;6.05;50.33;101182.97;1105957;39;20873;-79
2022/03/23 01:09:39;;;;;;;16.80;12.60;;;;;;;5.99;50.56;101181.53;1088614;54;20046;-79
2022/03/23 01:10:44;;;;;;;19.10;13.02;;;;;;;5.98;50.71;101185.09;1088629;54;20014;-79
2022/03/23 01:11:46;;;;;;;18.35;11.98;;;;;;;5.94;50.56;101187.06;1088715;54;20042;-79
2022/03/23 01:12:51;;;;;;;19.05;13.02;;;;;;;5.87;51.02;101187.47;1092120;39;20610;-79
2022/03/23 01:13:53;;;;;;;19.65;13.55;;;;;;;5.67;51.83;101186.78;1088563;54;20026;-79
2022/03/23 01:14:57;;;;;;;16.90;13.10;;;;;;;5.61;51.99;101182.72;1088403;54;20019;-78
2022/03/23 01:16:04;;;;;;;18.48;12.77;;;;;;;5.58;52.56;101189.97;1088630;54;20043;-80
2022/03/23 01:17:06;;;;;;;18.45;12.93;;;;;;;5.63;52.44;101193.22;1088585;54;20030;-79
2022/03/23 01:18:11;;;;;;;17.73;12.80;;;;;;;5.69;52.36;101189.38;1088576;54;20030;-78
2022/03/23 01:19:13;;;;;;;20.02;12.98;;;;;;;5.67;52.27;101193.91;1088437;54;20036;-79
2022/03/23 01:20:21;;;;;;;20.40;13.32;;;;;;;5.56;52.61;101192.72;1088115;54;20015;-79
2022/03/23 01:21:22;;;;;;;20.90;13.75;;;;;;;5.47;52.86;101193.22;1088474;54;20023;-80
2022/03/23 01:22:26;;;;;;;20.40;13.30;;;;;;;5.37;53.53;101184.91;1088439;54;20749;-79
2022/03/23 01:23:31;;;;;;;18.88;14.05;;;;;;;5.33;53.84;101188.66;1088505;54;20039;-78
2022/03/23 01:24:35;;;;;;;20.42;13.57;;;;;;;5.30;53.78;101192.34;1090247;46;20018;-78
2022/03/23 01:25:37;;;;;;;17.50;12.93;;;;;;;5.38;53.63;101186.63;1088536;54;20022;-78
2022/03/23 01:26:41;;;;;;;19.05;12.95;;;;;;;5.44;53.35;101194.25;1089892;46;20018;-79
2022/03/23 01:27:43;;;;;;;19.55;12.60;;;;;;;5.45;53.08;101185.34;1090232;46;20025;-79
2022/03/23 01:28:48;;;;;;;18.02;12.77;;;;;;;5.35;53.41;101200.03;1088473;54;20026;-79
2022/03/23 01:29:49;;;;;;;21.17;13.77;;;;;;;5.30;53.79;101184.38;1088432;54;20034;-78
2022/03/23 01:30:54;;;;;;;18.40;12.82;;;;;;;5.33;53.55;101190.47;1088209;54;21407;-78
2022/03/23 01:31:55;;;;;;;20.50;13.57;;;;;;;5.32;53.74;101194.91;1088393;54;20042;-79
2022/03/23 01:33:00;;;;;;;18.80;12.75;;;;;;;5.32;53.82;101189.59;1088478;54;20022;-78
2022/03/23 01:34:02;;;;;;;18.50;13.52;;;;;;;5.33;53.74;101188.66;1088409;54;20757;-78
2022/03/23 01:35:07;;;;;;;18.58;12.80;;;;;;;5.29;54.22;101182.66;1088476;54;20028;-77
2022/03/23 01:36:12;;;;;;;18.58;13.63;;;;;;;5.32;54.29;101194.91;1088501;54;20034;-79
2022/03/23 01:37:17;;;;;;;20.17;13.38;;;;;;;5.23;54.82;101187.44;1092412;46;20030;-79
2022/03/23 01:38:22;;;;;;;21.95;14.18;;;;;;;5.23;54.42;101184.78;1088507;54;20019;-79
2022/03/23 01:39:26;;;;;;;18.92;13.52;;;;;;;5.27;54.61;101187.19;1088394;54;20018;-78
2022/03/23 01:40:30;;;;;;;20.63;13.98;;;;;;;5.34;54.39;101192.19;1088470;54;20039;-77
2022/03/23 01:41:36;;;;;;;19.00;12.63;;;;;;;5.46;54.14;101187.06;1088415;54;20030;-78
2022/03/23 01:42:41;;;;;;;17.92;12.20;;;;;;;5.59;53.50;101186.38;1087869;54;20161;-78
2022/03/23 01:43:45;;;;;;;16.55;11.43;;;;;;;5.66;53.23;101192.19;1092956;39;20629;-78
2022/03/23 01:44:47;;;;;;;18.38;11.85;;;;;;;5.71;53.19;101191.00;1088459;54;20054;-80
2022/03/23 01:45:52;;;;;;;17.08;10.70;;;;;;;5.80;52.82;101181.69;1090959;46;20752;-79
2022/03/23 01:47:03;;;;;;;14.93;10.45;;;;;;;5.90;52.96;101189.97;1088432;54;20030;-78
2022/03/23 01:48:07;;;;;;;;;;;;;;;5.88;53.20;101184.75;1088578;54;20027;-78
2022/03/23 01:49:08;;;;;;;15.43;9.95;;;;;;;5.91;52.29;101186.38;1088331;54;19950;-78
2022/03/23 01:50:13;;;;;;;14.68;10.18;;;;;;;5.96;52.37;101180.81;1088844;39;20602;-78
2022/03/23 01:51:15;;;;;;;14.40;9.63;;;;;;;6.01;52.24;101187.59;1088381;54;20706;-80
2022/03/23 01:52:21;;;;;;;14.40;10.07;;;;;;;6.06;51.98;101180.22;1088385;54;20038;-79
2022/03/23 01:53:22;;;;;;;14.00;9.68;;;;;;;6.04;52.12;101187.44;1088427;54;20769;-78
2022/03/23 01:54:30;;;;;;;14.82;10.63;;;;;;;6.09;51.90;101177.41;1088377;54;20019;-79
2022/03/23 01:55:34;;;;;;;15.43;10.10;;;;;;;6.11;51.60;101184.44;1087918;54;20780;-78
2022/03/23 01:56:36;;;;;;;13.05;9.65;;;;;;;6.13;51.67;101182.53;1088410;54;20019;-79
2022/03/23 01:57:42;;;;;;;14.85;10.52;;;;;;;6.13;51.31;101187.84;1088456;54;20038;-77
2022/03/23 01:58:44;;;;;;;17.42;9.98;;;;;;;6.13;51.41;101191.34;1089087;46;20023;-77
2022/03/23 01:59:49;;;;;;;13.77;10.48;;;;;;;6.13;51.35;101185.19;1088484;54;20030;-79
2022/03/23 02:00:50;;;;;;;13.70;10.23;;;;;;;6.08;51.40;101183.66;1088445;54;20019;-79
2022/03/23 02:01:56;;;;;;;16.77;10.35;;;;;;;6.11;51.39;101184.44;1088412;54;20050;-80
2022/03/23 02:03:00;;;;;;;13.30;10.15;;;;;;;6.08;51.42;101181.00;1088429;54;20030;-79
2022/03/23 02:04:02;;;;;;;13.63;10.15;;;;;;;6.09;51.28;101179.22;1088515;54;20038;-80
2022/03/23 02:05:07;;;;;;;14.85;10.20;;;;;;;6.07;51.41;101181.09;1088551;54;20019;-79
2022/03/23 02:06:09;;;;;;;14.35;10.38;;;;;;;6.06;51.52;101180.22;1088553;54;20026;-78
2022/03/23 02:07:14;;;;;;;13.98;9.73;;;;;;;6.05;51.39;101182.97;1088528;54;20019;-79
2022/03/23 02:08:19;;;;;;;13.48;10.23;;;;;;;6.06;51.47;101182.88;1092109;39;20574;-80
2022/03/23 02:09:21;;;;;;;13.23;9.95;;;;;;;6.05;51.37;101178.50;1088463;54;20029;-81
2022/03/23 02:10:28;;;;;;;12.52;9.45;;;;;;;6.11;51.35;101176.47;1088572;54;20015;-80
2022/03/23 02:11:32;;;;;;;14.27;9.35;;;;;;;6.13;51.09;101179.88;1088523;54;21069;-79
2022/03/23 02:12:38;;;;;;;13.88;9.50;;;;;;;6.12;51.00;101183.50;1088497;54;20023;-80
2022/03/23 02:13:39;;;;;;;15.27;8.95;;;;;;;6.15;51.15;101175.31;1088456;54;20034;-80
2022/03/23 02:14:43;;;;;;;16.35;10.18;;;;;;;6.13;51.28;101179.88;1088540;54;20027;-81
2022/03/23 02:15:45;;;;;;;13.23;9.18;;;;;;;6.16;51.03;101175.25;1088525;54;20038;-79
2022/03/23 02:16:50;;;;;;;12.90;9.57;;;;;;;6.17;51.21;101176.09;1088276;54;20037;-79
2022/03/23 02:17:53;;;;;;;14.15;10.07;;;;;;;6.11;51.18;101177.31;1088420;54;20034;-80
2022/03/23 02:18:57;;;;;;;14.85;10.15;;;;;;;6.07;51.33;101184.59;1088473;54;20360;-80
2022/03/23 02:19:59;;;;;;;14.02;9.43;;;;;;;6.11;51.46;101171.16;1088468;54;20027;-81
2022/03/23 02:21:06;;;;;;;15.98;10.60;;;;;;;6.08;51.99;101175.69;1088594;54;20015;-80
2022/03/23 02:22:14;;;;;;;16.45;10.30;;;;;;;6.00;52.09;101185.06;1088523;54;20045;-82
2022/03/23 02:23:21;;;;;;;20.58;11.48;;;;;;;5.94;51.98;101175.59;1091485;39;20661;-80
2022/03/23 02:24:37;;;;;;;15.52;11.15;;;;;;;6.00;52.33;101179.75;1088599;54;20074;-81
2022/03/23 02:25:48;;;;;;;15.20;10.32;;;;;;;6.05;51.78;101180.31;1088618;54;20046;-81
2022/03/23 02:27:06;;;;;;;14.68;10.10;;;;;;;6.06;52.08;101185.53;1088361;54;20030;-81
2022/03/23 02:28:29;;;;;;;13.40;9.48;;;;;;;6.06;52.07;101174.91;1088407;54;20022;-82
2022/03/23 02:29:38;;;;;;;12.13;8.90;;;;;;;6.04;51.87;101181.25;1088287;54;20054;-80
2022/03/23 02:33:46;;;;;;;14.63;9.52;;;;;;;5.95;51.84;101182.63;1089148;46;20094;-80
2022/03/23 02:37:05;;;;;;;13.25;9.13;;;;;;;5.89;52.32;101177.66;1088598;54;20218;-81
2022/03/23 02:38:29;;;;;;;14.07;9.55;;;;;;;5.83;53.28;101188.63;1088493;54;20026;-80
2022/03/23 02:39:42;;;;;;;16.63;10.20;;;;;;;5.82;52.66;101187.75;1143851;31;20924;-81
2022/03/23 02:40:47;;;;;;;13.00;9.77;;;;;;;5.82;52.82;101181.59;1088449;54;20752;-80
2022/03/23 02:41:56;;;;;;;13.57;9.57;;;;;;;5.85;53.04;101176.97;1088559;54;20643;-80
2022/03/23 02:43:01;;;;;;;14.88;9.25;;;;;;;5.88;52.56;101187.41;1088145;54;20848;-81
2022/03/23 02:44:04;;;;;;;17.88;9.55;;;;;;;5.83;53.22;101184.16;1088536;54;20022;-79
2022/03/23 02:45:13;;;;;;;14.85;10.32;;;;;;;5.77;53.73;101185.34;1088542;54;20014;-79
2022/03/23 02:46:17;;;;;;;15.40;10.63;;;;;;;5.76;53.86;101182.78;1096676;46;20034;-80
2022/03/23 02:47:22;;;;;;;14.18;9.85;;;;;;;5.74;53.59;101185.53;1088534;54;20022;-82
2022/03/23 02:48:23;;;;;;;15.68;10.20;;;;;;;5.76;53.88;101188.09;1088499;54;20022;-80
2022/03/23 02:49:27;;;;;;;14.48;10.65;;;;;;;5.71;54.28;101185.69;1088365;54;20733;-78
2022/03/23 02:50:29;;;;;;;16.88;10.80;;;;;;;5.71;54.10;101183.06;1088470;54;20026;-78
2022/03/23 02:51:35;;;;;;;13.60;10.55;;;;;;;5.70;54.44;101183.97;1088444;54;20026;-79
2022/03/23 03:01:51;;;;;;;14.40;9.95;;;;;;;5.71;54.45;101190.16;1092478;39;20657;-78
2022/03/23 03:02:29;;;;;;;16.92;10.65;;;;;;;5.49;54.91;101188.69;1088306;54;20030;-80
2022/03/23 03:03:30;;;;;;;15.85;9.38;;;;;;;5.51;54.69;101188.59;1088889;46;20670;-79
2022/03/23 03:04:35;;;;;;;14.30;9.95;;;;;;;5.50;54.69;101187.75;1088388;54;20030;-80
2022/03/23 03:05:37;;;;;;;15.93;10.95;;;;;;;5.49;54.78;101190.47;1088534;54;20038;-80
2022/03/23 03:06:41;;;;;;;18.42;11.18;;;;;;;5.38;55.10;101194.59;1088543;54;20026;-81
2022/03/23 03:09:06;;;;;;;17.88;12.05;;;;;;;5.19;55.78;101199.16;1088431;54;20756;-79
2022/03/23 03:10:08;;;;;;;17.73;11.77;;;;;;;5.21;55.91;101199.91;1088340;54;20697;-79
2022/03/23 03:11:13;;;;;;;19.08;11.60;;;;;;;5.19;55.82;101209.78;1088470;54;20042;-80
2022/03/23 03:12:18;;;;;;;17.75;12.10;;;;;;;5.14;56.00;101202.91;1088449;54;20030;-79
2022/03/23 03:13:20;;;;;;;17.17;11.55;;;;;;;5.11;56.30;101207.50;1088429;54;20043;-80
2022/03/23 03:14:24;;;;;;;17.35;12.00;;;;;;;4.99;56.69;101203.72;1088365;54;20085;-79
2022/03/23 03:15:26;;;;;;;17.02;13.40;;;;;;;4.79;57.32;101205.63;1089008;46;20023;-78
2022/03/23 03:16:32;;;;;;;23.67;13.88;;;;;;;4.69;58.01;101215.81;1088378;54;20041;-80
2022/03/23 03:17:33;;;;;;;17.58;13.23;;;;;;;4.63;58.16;101215.28;1089847;46;20023;-78
2022/03/23 03:18:38;;;;;;;18.80;13.38;;;;;;;4.56;58.06;101216.50;1088401;54;20041;-79
2022/03/23 03:19:39;;;;;;;20.25;13.93;;;;;;;4.47;58.37;101202.78;1090662;46;20034;-78
2022/03/23 03:20:48;;;;;;;19.98;13.30;;;;;;;4.38;58.96;101208.56;1088340;54;20037;-77
2022/03/23 03:21:53;;;;;;;19.63;13.57;;;;;;;4.27;58.73;101205.56;1089168;46;20048;-79
2022/03/23 03:23:11;;;;;;;22.15;14.43;;;;;;;4.17;59.13;101207.84;1088423;54;20030;-80
2022/03/23 03:24:24;;;;;;;20.15;13.93;;;;;;;4.14;58.96;101207.97;1088459;54;20030;-80
2022/03/23 03:25:30;;;;;;;20.15;14.77;;;;;;;4.06;58.93;101208.38;1088497;54;20765;-81
2022/03/23 03:26:59;;;;;;;24.90;14.73;;;;;;;4.11;58.55;101211.63;1088534;54;20026;-79
2022/03/23 03:30:41;;;;;;;20.63;13.25;;;;;;;4.11;57.98;101214.28;1085104;54;20038;-79
2022/03/23 03:31:43;;;;;;;20.85;13.15;;;;;;;4.07;57.91;101215.34;1085747;54;20042;-79
2022/03/23 03:32:48;;;;;;;21.70;13.05;;;;;;;4.02;57.88;101212.06;1085347;54;20038;-78
2022/03/23 03:33:49;;;;;;;25.23;14.32;;;;;;;3.96;57.91;101222.97;1086144;39;20409;-78
2022/03/23 03:34:54;;;;;;;22.25;13.45;;;;;;;4.01;57.94;101220.94;1086286;54;21061;-78
2022/03/23 03:35:55;;;;;;;18.25;12.73;;;;;;;3.98;57.82;101215.78;1086543;54;20030;-79
2022/03/23 03:36:59;;;;;;;17.55;12.32;;;;;;;3.96;57.77;101217.69;1086404;46;20043;-80
2022/03/23 03:38:01;;;;;;;18.83;12.73;;;;;;;3.93;57.91;101223.94;1086627;54;20065;-79
2022/03/23 03:39:05;;;;;;;16.35;12.63;;;;;;;3.88;57.67;101221.53;1086834;54;20041;-78
2022/03/23 03:40:11;;;;;;;19.90;12.65;;;;;;;3.82;58.08;101224.47;1086807;46;20615;-78
2022/03/23 03:41:16;;;;;;;18.08;13.82;;;;;;;3.71;58.28;101224.09;1086634;54;20027;-79
2022/03/23 03:42:19;;;;;;;19.77;12.77;;;;;;;3.69;58.38;101218.03;1086161;54;20618;-80
2022/03/23 03:43:24;;;;;;;20.23;13.02;;;;;;;3.73;58.25;101227.53;1087313;39;20752;-78
2022/03/23 03:44:25;;;;;;;19.00;12.73;;;;;;;3.70;58.22;101223.25;1086114;54;20053;-79
2022/03/23 03:45:29;;;;;;;19.50;12.60;;;;;;;3.74;58.33;101223.97;1086327;54;20034;-79
2022/03/23 03:46:31;;;;;;;18.02;12.13;;;;;;;3.80;58.16;101222.81;1086328;54;20041;-78
2022/03/23 03:47:35;;;;;;;16.77;12.30;;;;;;;3.87;58.04;101219.81;1087176;46;20034;-79
2022/03/23 03:48:38;;;;;;;15.27;11.20;;;;;;;4.01;57.58;101226.22;1086737;47;20552;-79
2022/03/23 03:49:42;;;;;;;17.80;11.85;;;;;;;3.90;57.59;101224.97;1086535;54;20038;-79
2022/03/23 03:50:44;;;;;;;18.05;12.38;;;;;;;3.86;57.88;101228.69;1086772;54;20042;-79
2022/03/23 03:51:48;;;;;;;21.05;12.55;;;;;;;3.77;58.37;101218.53;1086526;54;20035;-79
2022/03/23 03:52:50;;;;;;;17.02;12.32;;;;;;;3.74;58.17;101223.97;1087061;39;20440;-80
2022/03/23 03:53:54;;;;;;;19.27;12.43;;;;;;;3.83;58.00;101225.31;1086975;39;20413;-79
2022/03/23 03:54:55;;;;;;;19.25;11.95;;;;;;;3.83;58.26;101225.31;1086581;54;20053;-79
2022/03/23 03:56:02;;;;;;;18.02;12.75;;;;;;;3.85;58.42;101223.47;1086619;54;20049;-78
2022/03/23 03:57:04;;;;;;;19.05;11.35;;;;;;;3.77;58.42;101228.25;1086595;54;20039;-79
2022/03/23 03:58:12;;;;;;;20.63;12.63;;;;;;;3.73;58.91;101232.84;1086665;54;20045;-79
2022/03/23 03:59:13;;;;;;;18.27;12.63;;;;;;;3.75;58.59;101220.41;1086975;54;20038;-79
2022/03/23 04:00:18;;;;;;;19.00;11.98;;;;;;;3.74;58.61;101230.09;1088035;46;20031;-79
2022/03/23 04:01:21;;;;;;;19.85;12.75;;;;;;;3.71;58.65;101230.28;1087204;54;20044;-79
2022/03/23 04:02:25;;;;;;;22.65;14.82;;;;;;;3.72;58.67;101225.81;1087296;54;20042;-79
2022/03/23 04:03:26;;;;;;;19.52;14.23;;;;;;;3.72;58.64;101229.34;1086869;54;20053;-79
2022/03/23 04:04:31;;;;;;;18.63;13.88;;;;;;;3.78;58.54;101225.53;1086731;54;20038;-79
2022/03/23 04:05:33;;;;;;;22.08;13.55;;;;;;;3.82;58.03;101231.56;1086880;54;20039;-79
2022/03/23 04:06:37;;;;;;;19.50;13.15;;;;;;;3.80;58.12;101228.13;1087112;46;20126;-79
2022/03/23 04:07:38;;;;;;;21.05;12.77;;;;;;;3.80;58.08;101234.25;1086791;47;20061;-79
2022/03/23 04:08:43;;;;;;;20.15;13.70;;;;;;;3.78;58.04;101230.81;1086548;54;20038;-79
2022/03/23 04:09:45;;;;;;;26.52;14.50;;;;;;;3.74;58.45;101226.63;1087728;46;20045;-78
2022/03/23 04:10:49;;;;;;;20.55;13.68;;;;;;;3.71;58.52;101229.41;1086727;54;20102;-79
2022/03/23 04:11:53;;;;;;;24.13;15.02;;;;;;;3.70;59.00;101231.19;1086686;54;20038;-80
2022/03/23 04:12:59;;;;;;;22.08;14.98;;;;;;;3.68;58.91;101225.13;1088096;39;20406;-80
2022/03/23 04:14:00;;;;;;;23.15;14.45;;;;;;;3.71;59.06;101224.09;1086536;54;20568;-80
2022/03/23 04:15:05;;;;;;;22.65;14.05;;;;;;;3.72;59.10;101233.75;1086435;54;20107;-79
2022/03/23 04:16:09;;;;;;;19.25;13.13;;;;;;;3.69;59.40;101232.13;1087169;46;20077;-79
2022/03/23 04:17:11;;;;;;;18.20;12.75;;;;;;;3.66;59.61;101240.19;1086757;54;20038;-79
2022/03/23 04:18:15;;;;;;;21.55;13.60;;;;;;;3.64;59.81;101234.09;1086700;54;20050;-79
2022/03/23 04:19:16;;;;;;;20.30;13.50;;;;;;;3.62;59.86;101235.13;1086531;54;20042;-79
2022/03/23 04:20:21;;;;;;;21.77;14.35;;;;;;;3.56;60.47;101234.47;1086667;54;20614;-79
2022/03/23 04:21:22;;;;;;;21.35;13.45;;;;;;;3.53;60.53;101242.53;1093607;31;20606;-79
2022/03/23 04:22:27;;;;;;;21.65;14.38;;;;;;;3.48;60.50;101238.38;1086531;54;20034;-79
2022/03/23 04:23:32;;;;;;;19.98;14.20;;;;;;;3.37;60.66;101241.53;1086444;47;20048;-80
2022/03/23 04:24:33;;;;;;;21.23;15.00;;;;;;;3.32;60.65;101243.50;1086733;54;20069;-79
2022/03/23 04:25:38;;;;;;;22.17;14.65;;;;;;;3.29;60.66;101239.22;1086541;54;20515;-79
2022/03/23 04:26:39;;;;;;;22.50;15.18;;;;;;;3.26;60.29;101250.78;1086696;54;20045;-78
2022/03/23 04:27:53;;;;;;;20.42;14.18;;;;;;;3.18;60.77;101241.47;1086651;54;20038;-79
2022/03/23 04:28:55;;;;;;;21.23;14.75;;;;;;;3.12;60.74;101245.25;1086703;54;20069;-80
2022/03/23 04:29:59;;;;;;;18.45;13.75;;;;;;;3.11;60.83;101241.75;1086882;54;20057;-80
2022/03/23 04:31:01;;;;;;;21.35;15.15;;;;;;;3.03;61.00;101243.88;1086661;54;20045;-80
2022/03/23 04:32:05;;;;;;;19.40;14.98;;;;;;;2.96;61.31;101245.94;1086687;54;20039;-79
2022/03/23 04:33:07;;;;;;;24.83;15.00;;;;;;;3.00;61.17;101244.00;1087481;47;20041;-80
2022/03/23 04:34:11;;;;;;;21.02;14.35;;;;;;;3.02;61.08;101246.59;1086700;54;20131;-79
2022/03/23 04:35:14;;;;;;;20.00;13.82;;;;;;;3.07;60.80;101247.25;1086899;54;20042;-79
2022/03/23 04:36:18;;;;;;;20.45;13.65;;;;;;;3.06;60.76;101242.88;1086770;54;20038;-79
2022/03/23 04:37:19;;;;;;;20.48;13.63;;;;;;;3.09;60.44;101248.88;1086990;54;20039;-80
2022/03/23 04:38:23;;;;;;;21.55;13.52;;;;;;;3.14;60.36;101251.31;1087338;54;20038;-79
2022/03/23 04:39:25;;;;;;;18.42;12.88;;;;;;;3.11;60.29;101251.47;1088157;39;20511;-79
2022/03/23 04:40:29;;;;;;;20.38;13.43;;;;;;;3.10;60.28;101253.25;1087333;54;20031;-80
2022/03/23 04:41:31;;;;;;;19.58;13.70;;;;;;;3.14;60.19;101250.47;1087023;54;20618;-79
2022/03/23 04:42:35;;;;;;;20.45;14.45;;;;;;;3.11;60.12;101254.97;1086713;54;20054;-79
2022/03/23 04:43:42;;;;;;;19.50;13.13;;;;;;;3.18;59.92;101252.91;1087093;39;20164;-79
2022/03/23 04:44:43;;;;;;;20.25;13.52;;;;;;;3.26;59.63;101250.78;1086902;54;20034;-78
2022/03/23 04:45:48;;;;;;;17.83;12.30;;;;;;;3.38;59.10;101254.66;1086890;54;20041;-79
2022/03/23 04:46:49;;;;;;;29.00;12.68;;;;;;;3.51;59.07;101256.78;1086832;54;20049;-80
2022/03/23 04:47:53;;;;;;;17.15;12.05;;;;;;;3.63;58.39;101252.69;1086212;54;20039;-80
2022/03/23 04:48:57;;;;;;;17.13;11.55;;;;;;;3.71;58.31;101256.72;1086929;46;20099;-79
2022/03/23 04:49:59;;;;;;;14.82;10.88;;;;;;;3.82;57.85;101252.72;1086828;54;20042;-79
2022/03/23 04:51:04;;;;;;;14.57;10.27;;;;;;;3.88;57.93;101258.56;1086882;54;20043;-79
2022/03/23 04:52:06;;;;;;;15.95;10.40;;;;;;;3.94;57.63;101256.56;1086967;54;20042;-79
2022/03/23 04:53:10;;;;;;;13.25;9.45;;;;;;;3.96;57.46;101260.00;1086875;54;20044;-79
2022/03/23 04:54:12;;;;;;;17.30;10.75;;;;;;;4.02;57.36;101260.56;1087223;39;20228;-79
2022/03/23 04:55:18;;;;;;;17.17;10.40;;;;;;;4.06;57.19;101256.00;1086693;54;20042;-79
2022/03/23 04:56:19;;;;;;;15.20;10.30;;;;;;;4.08;57.35;101256.75;1086699;54;20081;-79
2022/03/23 04:57:23;;;;;;;13.35;9.70;;;;;;;4.12;57.14;101249.53;1087185;47;20090;-79
2022/03/23 04:58:25;;;;;;;13.00;9.30;;;;;;;4.16;57.12;101259.06;1086905;54;20050;-79
2022/03/23 04:59:31;;;;;;;16.23;10.65;;;;;;;4.12;57.59;101250.41;1087215;39;20425;-78
2022/03/23 05:00:34;;;;;;;18.00;11.10;;;;;;;4.12;57.48;101247.75;1086911;54;20050;-79
2022/03/23 05:01:39;;;;;;;14.77;10.55;;;;;;;4.15;57.57;101249.38;1087141;54;20041;-79
2022/03/23 05:02:41;;;;;;;15.23;10.45;;;;;;;4.14;57.70;101252.97;1086707;54;20062;-79
2022/03/23 05:03:45;;;;;;;14.95;10.90;;;;;;;4.10;57.72;101257.56;1086681;54;20043;-79
2022/03/23 05:04:47;;;;;;;15.38;10.57;;;;;;;4.11;57.96;101259.28;1086621;54;20041;-78
2022/03/23 05:05:52;;;;;;;14.77;10.60;;;;;;;4.15;58.05;101258.22;1087066;47;20558;-78
2022/03/23 05:06:53;;;;;;;16.30;10.75;;;;;;;4.14;57.82;101256.50;1087422;39;20763;-79
2022/03/23 05:07:57;;;;;;;17.20;10.52;;;;;;;4.12;57.84;101255.69;1086707;54;20030;-78
2022/03/23 05:09:00;;;;;;;15.30;10.65;;;;;;;4.15;58.07;101254.69;1086769;54;20033;-79
2022/03/23 05:10:05;;;;;;;12.85;9.90;;;;;;;4.12;57.94;101255.69;1086810;54;20073;-79
2022/03/23 05:11:06;;;;;;;15.65;10.90;;;;;;;4.11;58.12;101253.13;1087722;47;20102;-78
2022/03/23 05:12:11;;;;;;;19.38;10.93;;;;;;;4.11;57.96;101259.28;1086941;54;20671;-79
2022/03/23 05:13:13;;;;;;;16.13;10.48;;;;;;;4.10;58.15;101262.00;1087744;39;20594;-78
2022/03/23 05:14:17;;;;;;;17.02;10.75;;;;;;;4.13;57.98;101267.13;1086669;54;20579;-79